aviador You're here:

KMEI Decoded Metar

MERIDIAN/KEY FLD in MS, USA
Report Time2017-11-25 02:58:00
UTC Time2017-11-25 03:54:09
Flight Rules vfr VFR
WindCalm
Visibility9999 m
Phenomena:N/A
Clouds:N/A
Expected CloudBase > 800 ft AGL from Temp-Dew spread
CeilingNone
Temp04°C (ISA -10)
Dew Point02°C (87% RH)
AAT2.3°C
QNH1016 hPa
Density Alt-974 ft
Elevation292 ft
Report Wrong Elevation
Raw Report
KMEI 250258Z 00000KT 10SM CLR 04/02 A2999 RMK AO2 SLP154 T00440022
51013=

Extra information for KMEI:More info

Metar Taf Metar & Taf Last 4 Metars F.Rules Stats Wind Profile Meteogram Temp Stats Airport Information Weather charts Add Link Nearby VenuesMetar ALERT Operation Metar Decoded Social comments

AIRNAV info for KMEI